createdAt,value
2017-12-03T00:00:52.169Z,49.40
2017-12-03T00:03:20.549Z,49.40
2017-12-03T00:05:48.090Z,49.90
2017-12-03T00:08:15.623Z,49.50
2017-12-03T00:10:43.165Z,48.50
2017-12-03T00:13:11.603Z,48.40
2017-12-03T00:15:39.157Z,49.20
2017-12-03T00:18:06.678Z,49.60
2017-12-03T00:20:34.230Z,52.30
2017-12-03T00:23:01.760Z,49.60
2017-12-03T00:25:29.310Z,50.00
2017-12-03T00:27:57.241Z,48.70
2017-12-03T00:30:24.793Z,48.90
2017-12-03T00:32:52.379Z,48.30
2017-12-03T00:35:19.944Z,48.80
2017-12-03T00:37:47.512Z,49.30
2017-12-03T00:40:15.058Z,49.50
2017-12-03T00:42:42.581Z,48.70
2017-12-03T00:45:10.516Z,48.80
2017-12-03T00:47:38.164Z,48.60
2017-12-03T00:50:05.717Z,48.50
2017-12-03T00:52:33.238Z,48.80
2017-12-03T00:55:00.787Z,49.40
2017-12-03T00:57:28.315Z,49.20
2017-12-03T00:59:55.866Z,49.00
2017-12-03T01:02:23.385Z,48.80
2017-12-03T01:04:51.324Z,48.90
2017-12-03T01:07:18.860Z,49.00
2017-12-03T01:09:46.403Z,49.30
2017-12-03T01:12:14.468Z,49.00
2017-12-03T01:14:41.983Z,48.70
2017-12-03T01:17:10.297Z,49.40
2017-12-03T01:19:37.821Z,48.90
2017-12-03T01:22:05.389Z,48.90
2017-12-03T01:24:33.447Z,48.90
2017-12-03T01:27:01.763Z,48.50
2017-12-03T01:29:29.292Z,48.30
2017-12-03T01:31:57.611Z,48.40
2017-12-03T01:34:25.133Z,48.50
2017-12-03T01:36:52.678Z,48.00
2017-12-03T01:39:21.709Z,48.70
2017-12-03T01:41:49.254Z,48.40
2017-12-03T01:44:16.782Z,48.30
2017-12-03T01:46:44.616Z,48.90
2017-12-03T01:49:12.146Z,48.10
2017-12-03T01:51:39.711Z,48.60
2017-12-03T01:54:07.659Z,49.20
2017-12-03T01:56:35.210Z,48.50
2017-12-03T01:59:03.667Z,48.50
2017-12-03T02:01:31.206Z,48.90
2017-12-03T02:03:58.736Z,47.60
2017-12-03T02:06:27.011Z,47.60
2017-12-03T02:08:54.543Z,48.10
2017-12-03T02:11:22.103Z,47.90
2017-12-03T02:13:49.620Z,48.30
2017-12-03T02:16:17.388Z,47.90
2017-12-03T02:18:44.913Z,48.90
2017-12-03T02:21:12.459Z,48.80
2017-12-03T02:23:39.982Z,47.80
2017-12-03T02:26:07.536Z,47.90
2017-12-03T02:28:35.066Z,47.80
2017-12-03T02:31:02.668Z,48.10
2017-12-03T02:33:30.215Z,48.50
2017-12-03T02:35:57.743Z,48.70
2017-12-03T02:38:25.301Z,49.10
2017-12-03T02:40:52.831Z,48.10
2017-12-03T02:43:21.198Z,47.70
2017-12-03T02:45:48.734Z,48.40
2017-12-03T02:48:16.282Z,48.20
2017-12-03T02:50:43.814Z,48.50
2017-12-03T02:53:11.365Z,48.60
2017-12-03T02:55:38.886Z,49.20
2017-12-03T02:58:06.450Z,49.90
2017-12-03T03:00:34.922Z,49.80
2017-12-03T03:03:02.464Z,48.90
2017-12-03T03:05:29.982Z,47.50
2017-12-03T03:07:58.287Z,48.40
2017-12-03T03:10:26.125Z,48.50
2017-12-03T03:12:54.050Z,48.90
2017-12-03T03:15:21.581Z,49.10
2017-12-03T03:17:49.126Z,49.60
2017-12-03T03:20:16.648Z,50.30
2017-12-03T03:22:44.183Z,50.40
2017-12-03T03:25:11.699Z,49.40
2017-12-03T03:27:39.251Z,48.90
2017-12-03T03:30:07.543Z,49.70
2017-12-03T03:32:35.485Z,50.50
2017-12-03T03:35:03.011Z,51.20
2017-12-03T03:37:30.562Z,51.30
2017-12-03T03:39:58.077Z,51.00
2017-12-03T03:42:25.622Z,51.60
2017-12-03T03:44:53.144Z,52.00
2017-12-03T03:47:20.665Z,52.00
2017-12-03T03:49:48.208Z,51.80
2017-12-03T03:52:16.497Z,52.30
2017-12-03T03:54:44.801Z,51.10
2017-12-03T03:57:12.327Z,49.70
2017-12-03T03:59:40.683Z,50.90
2017-12-03T04:02:08.210Z,50.90
2017-12-03T04:04:35.756Z,51.80
2017-12-03T04:07:03.274Z,51.40
2017-12-03T04:09:30.818Z,50.20
2017-12-03T04:11:58.352Z,50.60
2017-12-03T04:14:25.893Z,51.00
2017-12-03T04:16:53.437Z,50.50
2017-12-03T04:19:21.745Z,50.60
2017-12-03T04:21:49.270Z,50.60
2017-12-03T04:24:17.579Z,51.00
2017-12-03T04:26:45.701Z,51.10
2017-12-03T04:29:14.026Z,51.00
2017-12-03T04:31:41.546Z,51.00
2017-12-03T04:34:09.857Z,50.80
2017-12-03T04:36:37.377Z,50.30
2017-12-03T04:39:04.917Z,50.30
2017-12-03T04:41:32.446Z,50.70
2017-12-03T04:43:59.981Z,51.10
2017-12-03T04:46:27.510Z,51.70
2017-12-03T04:48:55.053Z,51.90
2017-12-03T04:51:22.576Z,51.90
2017-12-03T04:53:50.109Z,52.00
2017-12-03T04:56:18.394Z,52.40
2017-12-03T04:58:46.699Z,52.40
2017-12-03T05:01:15.034Z,51.70
2017-12-03T05:03:42.574Z,51.70
2017-12-03T05:06:10.111Z,51.80
2017-12-03T05:08:37.639Z,52.20
2017-12-03T05:11:05.185Z,51.10
2017-12-03T05:13:33.460Z,51.30
2017-12-03T05:16:01.148Z,51.90
2017-12-03T05:18:28.686Z,51.40
2017-12-03T05:20:56.625Z,50.70
2017-12-03T05:23:24.145Z,52.10
2017-12-03T05:25:51.698Z,52.60
2017-12-03T05:28:19.230Z,53.00
2017-12-03T05:30:46.773Z,53.20
2017-12-03T05:33:14.293Z,52.50
2017-12-03T05:35:41.846Z,52.90
2017-12-03T05:38:09.375Z,52.80
2017-12-03T05:40:36.922Z,52.50
2017-12-03T05:43:04.457Z,50.80
2017-12-03T05:45:31.999Z,51.20
2017-12-03T05:47:59.663Z,47.20
2017-12-03T05:50:27.980Z,47.00
2017-12-03T05:52:55.514Z,46.90
2017-12-03T05:55:23.056Z,46.00
2017-12-03T05:57:50.586Z,46.50
2017-12-03T06:00:18.122Z,46.10
2017-12-03T06:02:45.649Z,46.00
2017-12-03T06:05:13.229Z,46.10
2017-12-03T06:07:41.074Z,46.00
2017-12-03T06:10:08.626Z,45.40
2017-12-03T06:12:36.165Z,45.90
2017-12-03T06:15:04.093Z,45.70
2017-12-03T06:17:31.648Z,45.90
2017-12-03T06:19:59.321Z,45.80
2017-12-03T06:22:26.866Z,45.60
2017-12-03T06:24:54.485Z,46.10
2017-12-03T06:27:22.151Z,45.60
2017-12-03T06:29:49.713Z,46.10
2017-12-03T06:32:17.274Z,44.80
2017-12-03T06:34:44.806Z,44.80
2017-12-03T06:37:12.360Z,45.00
2017-12-03T06:39:40.658Z,45.20
2017-12-03T06:42:09.058Z,45.10
2017-12-03T06:44:37.438Z,43.70
2017-12-03T06:47:04.979Z,43.90
2017-12-03T06:49:32.538Z,44.30
2017-12-03T06:52:00.119Z,43.10
2017-12-03T06:54:28.443Z,43.80
2017-12-03T06:56:55.983Z,44.60
2017-12-03T06:59:23.507Z,44.50
2017-12-03T07:01:51.052Z,44.40
2017-12-03T07:04:18.591Z,44.30
2017-12-03T07:06:46.942Z,44.60
2017-12-03T07:09:15.232Z,43.50
2017-12-03T07:11:42.778Z,43.50
2017-12-03T07:14:10.306Z,43.70
2017-12-03T07:16:37.853Z,42.70
2017-12-03T07:19:05.380Z,42.60
2017-12-03T07:21:33.686Z,42.60
2017-12-03T07:24:01.213Z,42.50
2017-12-03T07:26:28.757Z,42.90
2017-12-03T07:28:56.279Z,43.10
2017-12-03T07:31:24.258Z,43.30
2017-12-03T07:33:51.788Z,43.50
2017-12-03T07:36:21.394Z,42.90
2017-12-03T07:38:48.933Z,43.00
2017-12-03T07:41:17.388Z,43.50
2017-12-03T07:43:44.935Z,43.40
2017-12-03T07:46:12.461Z,43.30
2017-12-03T07:48:40.006Z,43.40
2017-12-03T07:51:08.666Z,43.90
2017-12-03T07:53:36.213Z,43.00
2017-12-03T07:56:03.742Z,43.40
2017-12-03T07:58:31.722Z,42.90
2017-12-03T08:01:01.274Z,42.80
2017-12-03T08:03:28.814Z,43.20
2017-12-03T08:05:57.129Z,43.60
2017-12-03T08:08:25.450Z,43.30
2017-12-03T08:10:52.981Z,42.40
2017-12-03T08:13:20.553Z,42.50
2017-12-03T08:15:48.073Z,42.90
2017-12-03T08:18:15.605Z,42.30
2017-12-03T08:20:43.560Z,42.80
2017-12-03T08:23:11.116Z,42.40
2017-12-03T08:25:38.629Z,42.90
2017-12-03T08:28:06.165Z,42.10
2017-12-03T08:30:33.687Z,42.00
2017-12-03T08:33:01.516Z,42.60
2017-12-03T08:35:29.045Z,43.00
2017-12-03T08:37:56.635Z,42.50
2017-12-03T08:40:24.933Z,42.90
2017-12-03T08:42:52.484Z,41.40
2017-12-03T08:45:20.002Z,41.90
2017-12-03T08:47:48.454Z,42.30
2017-12-03T08:50:16.008Z,42.10
2017-12-03T08:52:43.679Z,42.40
2017-12-03T08:55:11.229Z,41.60
2017-12-03T08:57:38.757Z,42.00
2017-12-03T09:00:06.302Z,40.50
2017-12-03T09:02:33.816Z,40.80
2017-12-03T09:05:01.357Z,41.50
2017-12-03T09:07:28.883Z,41.00
2017-12-03T09:09:56.825Z,40.90
2017-12-03T09:12:24.357Z,41.10
2017-12-03T09:14:51.890Z,41.70
2017-12-03T09:17:19.408Z,41.30
2017-12-03T09:19:46.947Z,38.20
2017-12-03T09:22:14.459Z,74.00
2017-12-03T09:24:42.765Z,50.70
2017-12-03T09:27:10.295Z,42.70
2017-12-03T09:29:37.841Z,43.00
2017-12-03T09:32:05.361Z,38.10
2017-12-03T09:34:32.885Z,36.00
2017-12-03T09:37:01.253Z,36.30
2017-12-03T09:39:29.579Z,36.10
2017-12-03T09:41:57.100Z,34.50
2017-12-03T09:44:24.649Z,34.70
2017-12-03T09:46:52.158Z,34.60
2017-12-03T09:49:19.707Z,34.80
2017-12-03T09:51:47.212Z,35.30
2017-12-03T09:54:14.771Z,33.60
2017-12-03T09:56:42.273Z,33.40
2017-12-03T09:59:09.809Z,33.90
2017-12-03T10:01:37.321Z,33.00
2017-12-03T10:04:04.844Z,33.50
2017-12-03T10:06:33.158Z,33.50
2017-12-03T10:09:00.677Z,33.40
2017-12-03T10:11:28.209Z,32.30
2017-12-03T10:13:55.733Z,31.90
2017-12-03T10:16:23.272Z,34.00
2017-12-03T10:18:51.588Z,34.40
2017-12-03T10:21:19.129Z,34.20
2017-12-03T10:23:46.650Z,33.90
2017-12-03T10:26:14.966Z,34.10
2017-12-03T10:28:42.484Z,33.60
2017-12-03T10:31:10.018Z,32.70
2017-12-03T10:33:37.554Z,33.10
2017-12-03T10:36:05.103Z,32.80
2017-12-03T10:38:32.613Z,33.20
2017-12-03T10:41:00.208Z,34.00
2017-12-03T10:43:27.726Z,36.00
2017-12-03T10:45:55.269Z,35.80
2017-12-03T10:48:22.790Z,35.20
2017-12-03T10:50:50.331Z,35.70
2017-12-03T10:53:17.867Z,34.40
2017-12-03T10:55:45.406Z,34.30
2017-12-03T10:58:12.931Z,33.90
2017-12-03T11:00:40.495Z,34.10
2017-12-03T11:03:08.421Z,35.30
2017-12-03T11:05:36.405Z,35.50
2017-12-03T11:08:04.691Z,37.10
2017-12-03T11:10:32.254Z,38.10
2017-12-03T11:13:02.478Z,39.20
2017-12-03T11:15:30.401Z,40.20
2017-12-03T11:17:59.334Z,40.60
2017-12-03T11:20:27.996Z,40.90
2017-12-03T11:22:55.572Z,40.60
2017-12-03T11:25:24.855Z,40.40
2017-12-03T11:27:53.069Z,41.30
2017-12-03T11:30:20.653Z,41.60
2017-12-03T11:32:48.966Z,42.00
2017-12-03T11:35:17.997Z,42.30
2017-12-03T11:37:45.575Z,41.10
2017-12-03T11:40:14.361Z,40.80
2017-12-03T11:42:43.017Z,40.60
2017-12-03T11:45:10.538Z,41.00
2017-12-03T11:47:38.881Z,41.20
2017-12-03T11:50:07.232Z,41.20
2017-12-03T11:52:36.478Z,41.80
2017-12-03T11:55:04.006Z,42.10
2017-12-03T11:57:32.419Z,42.10
2017-12-03T12:00:00.900Z,41.60
2017-12-03T12:02:30.108Z,40.90
2017-12-03T12:04:57.625Z,41.30
2017-12-03T12:07:25.939Z,42.00
2017-12-03T12:09:55.017Z,42.20
2017-12-03T12:12:22.563Z,41.50
2017-12-03T12:14:50.854Z,41.30
2017-12-03T12:17:20.834Z,41.40
2017-12-03T12:19:49.127Z,42.40
2017-12-03T12:22:18.352Z,42.30
2017-12-03T12:24:45.914Z,42.10
2017-12-03T12:27:14.221Z,42.30
2017-12-03T12:29:42.517Z,42.60
2017-12-03T12:32:10.828Z,42.20
2017-12-03T12:34:39.136Z,41.60
2017-12-03T12:37:07.894Z,41.40
2017-12-03T12:39:36.054Z,41.70
2017-12-03T12:42:04.774Z,42.40
2017-12-03T12:44:33.069Z,42.80
2017-12-03T12:47:01.401Z,43.10
2017-12-03T12:49:29.325Z,43.00
2017-12-03T12:51:57.620Z,43.00
2017-12-03T12:54:26.354Z,43.30
2017-12-03T12:56:54.280Z,43.40
2017-12-03T12:59:23.439Z,43.00
2017-12-03T13:01:52.660Z,43.00
2017-12-03T13:04:20.595Z,43.30
2017-12-03T13:06:48.887Z,43.80
2017-12-03T13:09:17.194Z,44.10
2017-12-03T13:11:45.494Z,44.00
2017-12-03T13:14:13.040Z,43.80
2017-12-03T13:16:40.954Z,43.50
2017-12-03T13:19:09.263Z,43.20
2017-12-03T13:21:37.649Z,43.90
2017-12-03T13:24:05.974Z,44.90
2017-12-03T13:26:34.293Z,46.60
2017-12-03T13:29:02.670Z,47.80
2017-12-03T13:31:31.903Z,48.80
2017-12-03T13:33:59.450Z,49.20
2017-12-03T13:36:27.850Z,49.00
2017-12-03T13:38:56.159Z,49.50
2017-12-03T13:41:24.442Z,50.10
2017-12-03T13:43:52.747Z,50.00
2017-12-03T13:46:20.266Z,49.80
2017-12-03T13:48:48.243Z,49.60
2017-12-03T13:51:16.530Z,49.30
2017-12-03T13:53:44.833Z,49.70
2017-12-03T13:56:13.838Z,50.10
2017-12-03T13:58:42.687Z,51.20
2017-12-03T14:01:10.245Z,51.60
2017-12-03T14:03:38.979Z,51.70
2017-12-03T14:06:07.139Z,51.30
2017-12-03T14:08:35.210Z,51.40
2017-12-03T14:11:03.126Z,51.50
2017-12-03T14:13:32.152Z,52.40
2017-12-03T14:16:00.086Z,51.70
2017-12-03T14:18:28.423Z,51.90
2017-12-03T14:20:57.457Z,51.70
2017-12-03T14:23:25.164Z,52.20
2017-12-03T14:25:53.470Z,52.20
2017-12-03T14:28:21.767Z,53.10
2017-12-03T14:30:50.073Z,53.80
2017-12-03T14:33:18.364Z,54.10
2017-12-03T14:35:48.170Z,55.20
2017-12-03T14:38:18.599Z,56.30
2017-12-03T14:40:46.154Z,56.70
2017-12-03T14:43:15.550Z,56.80
2017-12-03T14:45:43.090Z,57.00
2017-12-03T14:48:11.488Z,57.10
2017-12-03T14:50:39.430Z,57.30
2017-12-03T14:53:07.986Z,57.00
2017-12-03T14:55:37.034Z,57.20
2017-12-03T14:58:04.571Z,57.30
2017-12-03T15:00:34.461Z,57.40
2017-12-03T15:03:02.755Z,56.60
2017-12-03T15:05:31.062Z,56.70
2017-12-03T15:07:59.359Z,56.70
2017-12-03T15:10:27.718Z,56.20
2017-12-03T15:12:56.334Z,56.10
2017-12-03T15:15:24.770Z,56.60
2017-12-03T15:17:52.687Z,57.40
2017-12-03T15:20:21.906Z,57.60
2017-12-03T15:22:49.831Z,57.20
2017-12-03T15:25:17.777Z,57.20
2017-12-03T15:27:46.903Z,57.80
2017-12-03T15:30:14.445Z,57.90
2017-12-03T15:32:43.054Z,58.10
2017-12-03T15:35:11.370Z,58.20
2017-12-03T15:37:39.662Z,58.40
2017-12-03T15:40:07.955Z,57.80
2017-12-03T15:42:37.186Z,57.90
2017-12-03T15:45:05.489Z,57.80
2017-12-03T15:47:33.052Z,57.40
2017-12-03T15:50:01.346Z,57.50
2017-12-03T15:52:29.667Z,57.40
2017-12-03T15:54:57.964Z,57.20
2017-12-03T15:57:26.278Z,57.40
2017-12-03T15:59:54.577Z,57.70
2017-12-03T16:02:22.527Z,57.70
2017-12-03T16:04:50.048Z,58.00
2017-12-03T16:07:18.362Z,58.40
2017-12-03T16:09:46.646Z,58.60
2017-12-03T16:12:15.218Z,58.50
2017-12-03T16:14:43.548Z,58.40
2017-12-03T16:17:11.862Z,58.60
2017-12-03T16:19:40.249Z,58.40
2017-12-03T16:22:08.595Z,59.00
2017-12-03T16:24:37.336Z,59.30
2017-12-03T16:27:05.288Z,58.60
2017-12-03T16:29:33.623Z,58.60
2017-12-03T16:32:01.955Z,59.00
2017-12-03T16:34:30.251Z,58.80
2017-12-03T16:36:58.573Z,58.80
2017-12-03T16:39:27.870Z,58.90
2017-12-03T16:41:56.198Z,58.70
2017-12-03T16:44:23.729Z,58.70
2017-12-03T16:46:52.054Z,58.50
2017-12-03T16:49:20.337Z,59.20
2017-12-03T16:51:49.407Z,58.70
2017-12-03T16:54:17.487Z,59.30
2017-12-03T16:56:45.770Z,59.20
2017-12-03T16:59:13.727Z,61.10
2017-12-03T17:01:42.041Z,58.50
2017-12-03T17:04:10.337Z,58.30
2017-12-03T17:06:39.379Z,58.50
2017-12-03T17:09:06.932Z,58.40
2017-12-03T17:11:36.139Z,58.10
2017-12-03T17:14:03.719Z,58.50
2017-12-03T17:16:32.016Z,58.60
2017-12-03T17:19:00.603Z,58.70
2017-12-03T17:21:28.897Z,59.40
2017-12-03T17:23:57.225Z,59.50
2017-12-03T17:26:25.710Z,59.70
2017-12-03T17:28:53.671Z,59.40
2017-12-03T17:31:21.956Z,59.30
2017-12-03T17:33:49.501Z,59.60
2017-12-03T17:36:17.430Z,59.50
2017-12-03T17:38:45.744Z,59.70
2017-12-03T17:41:14.042Z,60.30
2017-12-03T17:43:42.540Z,60.10
2017-12-03T17:46:10.840Z,59.90
2017-12-03T17:48:39.198Z,59.30
2017-12-03T17:51:08.272Z,58.90
2017-12-03T17:53:35.915Z,58.90
2017-12-03T17:56:04.205Z,59.80
2017-12-03T17:58:32.508Z,60.90
2017-12-03T18:01:00.824Z,60.80
2017-12-03T18:03:30.057Z,60.50
2017-12-03T18:05:58.304Z,60.00
2017-12-03T18:08:25.894Z,59.80
2017-12-03T18:10:54.185Z,59.60
2017-12-03T18:13:22.533Z,59.60
2017-12-03T18:15:51.548Z,60.10
2017-12-03T18:18:19.925Z,60.00
2017-12-03T18:20:48.206Z,60.30
2017-12-03T18:23:16.165Z,60.80
2017-12-03T18:25:44.456Z,60.70
2017-12-03T18:28:13.035Z,60.90
2017-12-03T18:30:41.774Z,60.80
2017-12-03T18:33:10.077Z,61.30
2017-12-03T18:35:37.601Z,60.20
2017-12-03T18:38:06.763Z,60.30
2017-12-03T18:40:35.119Z,60.30
2017-12-03T18:43:03.452Z,59.50
2017-12-03T18:45:31.014Z,59.80
2017-12-03T18:47:59.326Z,59.70
2017-12-03T18:50:27.671Z,59.50
2017-12-03T18:52:55.956Z,59.70
2017-12-03T18:55:24.317Z,60.90
2017-12-03T18:57:52.618Z,60.30
2017-12-03T19:00:20.214Z,59.60
2017-12-03T19:02:48.145Z,59.90
2017-12-03T19:05:16.710Z,59.70
2017-12-03T19:07:45.024Z,59.90
2017-12-03T19:10:13.340Z,59.50
2017-12-03T19:12:41.627Z,59.10
2017-12-03T19:15:09.936Z,58.80
2017-12-03T19:17:38.235Z,58.80
2017-12-03T19:20:06.549Z,58.90
2017-12-03T19:22:35.877Z,59.20
2017-12-03T19:25:03.426Z,59.00
2017-12-03T19:27:31.717Z,59.40
2017-12-03T19:30:00.040Z,59.30
2017-12-03T19:32:28.334Z,59.20
2017-12-03T19:34:56.707Z,58.50
2017-12-03T19:37:25.786Z,57.90
2017-12-03T19:39:53.387Z,58.50
2017-12-03T19:42:21.699Z,58.60
2017-12-03T19:44:50.074Z,58.50
2017-12-03T19:47:18.418Z,58.20
2017-12-03T19:49:47.245Z,57.70
2017-12-03T19:52:15.203Z,57.60
2017-12-03T19:54:44.949Z,58.50
2017-12-03T19:57:13.313Z,58.80
2017-12-03T19:59:42.013Z,58.60
2017-12-03T20:02:09.978Z,57.90
2017-12-03T20:04:38.498Z,58.20
2017-12-03T20:07:07.188Z,58.40
2017-12-03T20:09:34.712Z,58.20
2017-12-03T20:12:04.253Z,58.40
2017-12-03T20:14:34.351Z,58.20
2017-12-03T20:17:02.815Z,58.10
2017-12-03T20:19:31.101Z,58.20
2017-12-03T20:21:59.405Z,57.80
2017-12-03T20:24:27.727Z,57.70
2017-12-03T20:26:56.636Z,58.40
2017-12-03T20:29:24.610Z,58.50
2017-12-03T20:31:52.924Z,59.20
2017-12-03T20:34:21.213Z,58.80
2017-12-03T20:36:49.541Z,58.80
2017-12-03T20:39:17.829Z,58.80
2017-12-03T20:41:46.135Z,58.80
2017-12-03T20:44:15.225Z,58.80
2017-12-03T20:46:43.535Z,58.40
2017-12-03T20:49:11.060Z,58.40
2017-12-03T20:51:39.480Z,61.40
2017-12-03T20:54:10.421Z,58.40
2017-12-03T20:56:37.975Z,58.50
2017-12-03T20:59:06.827Z,58.00
2017-12-03T21:01:34.373Z,57.90
2017-12-03T21:04:02.670Z,58.10
2017-12-03T21:06:30.979Z,57.80
2017-12-03T21:08:59.544Z,57.50
2017-12-03T21:11:27.855Z,57.10
2017-12-03T21:13:56.147Z,56.80
2017-12-03T21:16:25.200Z,57.60
2017-12-03T21:18:53.538Z,57.10
2017-12-03T21:21:21.086Z,57.10
2017-12-03T21:23:50.431Z,57.40
2017-12-03T21:26:17.978Z,57.40
2017-12-03T21:28:46.345Z,57.50
2017-12-03T21:31:14.709Z,81.70
2017-12-03T21:33:43.047Z,64.60
2017-12-03T21:36:11.335Z,53.40
2017-12-03T21:38:39.634Z,52.20
2017-12-03T21:41:08.694Z,52.90
2017-12-03T21:43:37.258Z,53.70
2017-12-03T21:46:05.589Z,55.10
2017-12-03T21:48:33.889Z,55.90
2017-12-03T21:51:03.521Z,56.90
2017-12-03T21:53:31.562Z,57.20
2017-12-03T21:55:59.500Z,57.10
2017-12-03T21:58:28.538Z,57.50
2017-12-03T22:00:56.948Z,58.30
2017-12-03T22:03:24.725Z,57.50
2017-12-03T22:05:54.410Z,57.90
2017-12-03T22:08:22.713Z,58.20
2017-12-03T22:10:51.489Z,58.90
2017-12-03T22:13:19.067Z,58.20
2017-12-03T22:15:47.400Z,58.60
2017-12-03T22:18:14.944Z,58.80
2017-12-03T22:20:43.780Z,58.80
2017-12-03T22:23:11.315Z,58.80
2017-12-03T22:25:39.226Z,59.00
2017-12-03T22:28:06.764Z,58.70
2017-12-03T22:30:35.050Z,59.30
2017-12-03T22:33:03.354Z,61.00
2017-12-03T22:35:31.646Z,60.60
2017-12-03T22:38:00.562Z,61.90
2017-12-03T22:40:28.083Z,61.70
2017-12-03T22:42:56.024Z,61.00
2017-12-03T22:45:23.541Z,60.50
2017-12-03T22:47:51.826Z,60.50
2017-12-03T22:50:20.126Z,60.00
2017-12-03T22:52:47.642Z,60.30
2017-12-03T22:55:15.578Z,60.20
2017-12-03T22:57:43.874Z,59.80
2017-12-03T23:00:13.949Z,59.60
2017-12-03T23:02:41.857Z,59.30
2017-12-03T23:05:10.170Z,59.40
2017-12-03T23:07:37.694Z,60.00
2017-12-03T23:10:05.693Z,60.20
2017-12-03T23:12:34.113Z,60.00
2017-12-03T23:15:02.430Z,60.40
2017-12-03T23:17:30.730Z,60.40
2017-12-03T23:19:59.048Z,60.60
2017-12-03T23:22:27.346Z,60.40
2017-12-03T23:24:55.657Z,60.50
2017-12-03T23:27:23.948Z,60.60
2017-12-03T23:29:52.267Z,60.70
2017-12-03T23:32:20.555Z,60.40
2017-12-03T23:34:48.095Z,60.40
2017-12-03T23:37:16.017Z,60.30
2017-12-03T23:39:44.454Z,60.20
2017-12-03T23:42:12.745Z,60.40
2017-12-03T23:44:41.053Z,60.30
2017-12-03T23:47:09.360Z,60.40
2017-12-03T23:49:37.672Z,60.60
2017-12-03T23:52:05.977Z,60.40
2017-12-03T23:54:33.531Z,60.30
2017-12-03T23:57:01.455Z,61.40
2017-12-03T23:59:30.321Z,60.90
